Main page
METAR-TAF:

METAR-TAF

Airports :

Sharjah International Airport

Sharjah, United Arab Emirates

latitude: 25-20N, longitude: 055-31E, elevation: 35 m

Current weather observation

The report was made 35 minutes ago, at 22:00 UTC
Wind 6 kt from the East/Southeast
Temperature 30°C
Humidity 79%
Pressure 1005 hPa
Visibility 10 km or more
no clouds below 1500 m and no cumulonimbus

METAR: OMSJ 212200Z 12006KT CAVOK 30/26 Q1005

Time: 02:35 (22:35 UTC)

Forecast

The report was made 5 hours and 39 minutes ago, at 16:56 UTC
Forecast valid from 21 at 18 UTC to 23 at 00 UTC
Wind 5 kt from the East
Visibility 10 km or more
no clouds below 1500 m and no cumulonimbus
Becoming
from 22 at 03 UTC to 22 at 05 UTC
Wind 10 kt from the South/Southeast
Becoming
from 22 at 08 UTC to 22 at 10 UTC
Wind 14 kt from the North/Northwest
Becoming
from 22 at 15 UTC to 22 at 17 UTC
Wind 5 kt from the East

TAF: OMSJ 211656Z 2118/2300 10005KT CAVOK BECMG 2203/2205 16010KT BECMG 2208/2210 34014KT BECMG 2215/2217 10005KT

Weather observations and forecasts of more than 4000 airports (METAR and TAF reports).

The available stations are represented by yellow and red dots on the map.

Hover mouse over dot to see the name of the station.

Then click to see weather observations and forecasts.

To change the map : click on the green buttons with a black cross to zoom in, on the green button with a dash to zoom out, or on the green arrows for adjacent maps.


METAR-TAF: